Time;durP1;ratioP1;P1;durP2;ratioP2;P2;SDS_P1;SDS_P2;PMS_P1;PMS_P2;Temp;Humidity;BMP_temperature;BMP_pressure;BME280_temperature;BME280_humidity;BME280_pressure;Samples;Min_cycle;Max_cycle;Signal;HPM_P1;HPM_P2
2021/10/18 00:00:19;;;;;;;;;;;;;;;8.18;100.00;101700.66;5113316;27;20299;-76
2021/10/18 00:02:45;;;;;;;60.63;29.02;;;;;;;8.23;100.00;101702.94;5129931;27;19954;-75
2021/10/18 00:05:12;;;;;;;67.65;30.23;;;;;;;8.26;100.00;101694.72;5130516;27;20059;-76
2021/10/18 00:07:38;;;;;;;61.65;28.70;;;;;;;8.31;100.00;101700.53;5129815;27;20045;-76
2021/10/18 00:10:06;;;;;;;57.17;30.45;;;;;;;8.29;100.00;101696.28;5129647;27;20368;-76
2021/10/18 00:12:32;;;;;;;66.47;29.13;;;;;;;8.27;100.00;101699.06;5129062;27;20031;-76
2021/10/18 00:14:59;;;;;;;62.05;29.30;;;;;;;8.20;100.00;101682.75;5129340;27;20019;-76
2021/10/18 00:17:24;;;;;;;54.03;28.48;;;;;;;8.17;100.00;101682.16;5129687;27;20049;-76
2021/10/18 00:19:49;;;;;;;55.67;30.33;;;;;;;8.19;100.00;101681.09;5112369;27;20130;-76
2021/10/18 00:22:16;;;;;;;70.90;32.35;;;;;;;8.23;100.00;101692.31;5130454;27;20123;-76
2021/10/18 00:24:41;;;;;;;61.38;32.20;;;;;;;8.27;100.00;101700.91;5111979;27;20030;-75
2021/10/18 00:27:07;;;;;;;62.28;30.58;;;;;;;8.22;100.00;101701.25;5129440;27;20039;-76
2021/10/18 00:29:33;;;;;;;67.03;31.40;;;;;;;8.16;100.00;101683.13;5129314;27;20068;-76
2021/10/18 00:31:58;;;;;;;62.50;30.90;;;;;;;8.22;100.00;101704.75;5130363;27;20058;-76
2021/10/18 00:34:24;;;;;;;69.70;33.00;;;;;;;8.18;100.00;101694.50;5129921;27;20027;-76
2021/10/18 00:36:50;;;;;;;73.90;35.08;;;;;;;8.28;100.00;101713.22;5129085;27;20397;-76
2021/10/18 00:39:15;;;;;;;67.63;31.20;;;;;;;8.29;100.00;101704.25;5129989;27;20380;-76
2021/10/18 00:41:40;;;;;;;62.77;32.07;;;;;;;8.30;100.00;101704.13;5129080;27;20667;-76
2021/10/18 00:44:06;;;;;;;74.33;33.13;;;;;;;8.31;100.00;101708.50;5128763;27;20110;-76
2021/10/18 00:46:32;;;;;;;62.40;30.30;;;;;;;8.38;100.00;101712.38;5129092;27;20493;-76
2021/10/18 00:48:57;;;;;;;67.78;32.53;;;;;;;8.36;100.00;101706.31;5128907;27;20050;-76
2021/10/18 00:51:26;;;;;;;64.27;32.40;;;;;;;8.38;100.00;101707.03;5130008;27;20552;-76
2021/10/18 00:53:55;;;;;;;61.10;31.50;;;;;;;8.29;100.00;101702.47;5129180;27;20031;-76
2021/10/18 00:56:22;;;;;;;65.38;32.53;;;;;;;8.28;100.00;101691.94;5128914;27;20031;-75
2021/10/18 00:58:49;;;;;;;64.75;31.52;;;;;;;8.30;100.00;101696.16;5128777;27;20387;-76
2021/10/18 01:01:15;;;;;;;66.95;31.08;;;;;;;8.32;100.00;101702.19;5129749;27;20046;-77
2021/10/18 01:03:41;;;;;;;62.08;31.05;;;;;;;8.40;100.00;101694.47;5129408;27;20050;-76
2021/10/18 01:06:06;;;;;;;61.50;31.20;;;;;;;8.34;100.00;101689.63;5128703;27;20052;-76
2021/10/18 01:08:32;;;;;;;62.05;31.10;;;;;;;8.31;100.00;101671.25;5128623;27;20031;-76
2021/10/18 01:10:58;;;;;;;64.63;31.40;;;;;;;8.33;100.00;101681.75;5128659;27;20084;-76
2021/10/18 01:13:23;;;;;;;65.07;30.47;;;;;;;8.33;100.00;101677.28;5129226;27;20413;-76
2021/10/18 01:15:48;;;;;;;60.10;29.65;;;;;;;8.32;100.00;101678.25;5129530;27;20111;-76
2021/10/18 01:18:14;;;;;;;60.43;30.70;;;;;;;8.28;100.00;101668.00;5128551;27;20064;-77
2021/10/18 01:20:41;;;;;;;63.90;31.13;;;;;;;8.33;100.00;101676.44;5129488;27;20039;-76
2021/10/18 01:23:09;;;;;;;59.60;31.70;;;;;;;8.32;100.00;101666.78;5128806;27;20344;-77
2021/10/18 01:25:36;;;;;;;67.57;30.35;;;;;;;8.25;100.00;101664.59;5129034;27;20067;-77
2021/10/18 01:28:03;;;;;;;57.83;30.40;;;;;;;8.31;100.00;101665.94;5128531;27;20105;-77
2021/10/18 01:30:28;;;;;;;63.10;33.28;;;;;;;8.27;100.00;101655.66;5129435;27;20200;-76
2021/10/18 01:32:54;;;;;;;61.33;31.27;;;;;;;8.30;100.00;101660.72;5129401;27;20130;-77
2021/10/18 01:35:20;;;;;;;66.50;32.58;;;;;;;8.20;100.00;101653.50;5128072;27;20379;-77
2021/10/18 01:37:45;;;;;;;58.70;29.30;;;;;;;8.23;100.00;101660.38;5128523;27;20039;-77
2021/10/18 01:40:13;;;;;;;57.00;27.43;;;;;;;8.24;100.00;101659.41;5128603;27;20031;-76
2021/10/18 01:42:40;;;;;;;63.00;28.05;;;;;;;8.22;100.00;101656.03;5127515;27;20280;-77
2021/10/18 01:45:07;;;;;;;50.63;27.20;;;;;;;8.20;100.00;101642.03;5128973;27;20042;-77
2021/10/18 01:47:33;;;;;;;48.80;24.00;;;;;;;8.20;100.00;101644.69;5128235;27;20129;-77
2021/10/18 01:49:58;;;;;;;50.35;26.52;;;;;;;8.24;100.00;101651.41;5128077;27;20184;-77
2021/10/18 01:52:24;;;;;;;54.88;26.05;;;;;;;8.32;100.00;101649.00;5128065;27;20054;-77
2021/10/18 01:54:50;;;;;;;57.17;27.13;;;;;;;8.29;100.00;101643.06;5110379;28;20027;-76
2021/10/18 01:57:16;;;;;;;48.10;24.90;;;;;;;8.31;100.00;101642.00;5128302;27;20065;-77
2021/10/18 01:59:41;;;;;;;45.15;25.33;;;;;;;8.29;100.00;101643.94;5128162;28;20039;-76
2021/10/18 02:02:07;;;;;;;54.87;25.50;;;;;;;8.23;100.00;101628.47;5111034;27;20077;-77
2021/10/18 02:04:32;;;;;;;58.60;25.83;;;;;;;8.22;100.00;101632.94;5128830;27;20084;-77
2021/10/18 02:06:58;;;;;;;57.60;25.77;;;;;;;8.22;100.00;101630.28;5129005;27;20027;-77
2021/10/18 02:09:23;;;;;;;50.45;26.35;;;;;;;8.27;100.00;101634.38;5129059;28;20043;-77
2021/10/18 02:11:49;;;;;;;58.65;28.40;;;;;;;8.18;100.00;101635.97;5128085;27;20046;-77
2021/10/18 02:14:14;;;;;;;48.55;24.75;;;;;;;8.18;100.00;101633.31;5127574;27;20039;-77
2021/10/18 02:16:40;;;;;;;46.97;25.10;;;;;;;8.28;100.00;101646.69;5128901;27;20071;-77
2021/10/18 02:19:06;;;;;;;51.40;26.90;;;;;;;8.24;100.00;101635.44;5127844;27;20400;-77
2021/10/18 02:21:31;;;;;;;51.33;26.27;;;;;;;8.24;100.00;101622.16;5128978;28;20159;-78
2021/10/18 02:23:56;;;;;;;49.92;26.33;;;;;;;8.32;100.00;101630.38;5127680;27;20062;-78
2021/10/18 02:26:22;;;;;;;43.37;23.40;;;;;;;8.25;100.00;101621.19;5128853;28;20046;-77
2021/10/18 02:28:47;;;;;;;51.77;25.70;;;;;;;8.29;100.00;101617.31;5127857;28;20134;-78
2021/10/18 02:31:13;;;;;;;49.05;22.50;;;;;;;8.25;100.00;101619.38;5110805;27;20038;-77
2021/10/18 02:33:39;;;;;;;43.88;21.90;;;;;;;8.21;100.00;101609.94;5128509;27;20035;-78
2021/10/18 02:36:05;;;;;;;42.35;23.58;;;;;;;8.15;100.00;101607.81;5130424;27;20031;-78
2021/10/18 02:38:31;;;;;;;39.85;20.17;;;;;;;8.17;100.00;101608.53;5131685;27;20039;-78
2021/10/18 02:40:56;;;;;;;41.17;20.40;;;;;;;8.22;100.00;101613.47;5131556;27;20050;-78
2021/10/18 02:43:22;;;;;;;39.27;19.77;;;;;;;8.24;100.00;101606.19;5131151;27;20095;-77
2021/10/18 02:45:48;;;;;;;40.43;18.80;;;;;;;8.21;100.00;101598.47;5131551;27;20042;-78
2021/10/18 02:48:14;;;;;;;33.05;17.30;;;;;;;8.25;100.00;101597.25;5131301;27;20046;-77
2021/10/18 02:50:40;;;;;;;30.60;17.52;;;;;;;8.30;100.00;101602.19;5131198;27;20035;-77
2021/10/18 02:53:06;;;;;;;35.35;19.17;;;;;;;8.33;100.00;101596.63;5114189;27;20066;-77
2021/10/18 02:55:31;;;;;;;37.40;17.38;;;;;;;8.34;100.00;101604.47;5131777;27;20099;-77
2021/10/18 02:57:57;;;;;;;32.00;16.42;;;;;;;8.45;100.00;101600.94;5131409;27;20074;-77
2021/10/18 03:00:22;;;;;;;27.73;16.03;;;;;;;8.34;100.00;101604.47;5114171;27;20130;-77
2021/10/18 03:02:50;;;;;;;34.35;16.92;;;;;;;8.40;100.00;101592.50;5132035;27;20554;-77
2021/10/18 03:05:15;;;;;;;35.35;15.88;;;;;;;8.36;100.00;101591.06;5130972;27;20031;-77
2021/10/18 03:07:41;;;;;;;28.47;15.90;;;;;;;8.38;100.00;101600.59;5131029;27;20039;-77
2021/10/18 03:10:07;;;;;;;26.00;15.90;;;;;;;8.43;100.00;101592.25;5130911;27;20035;-77
2021/10/18 03:12:33;;;;;;;33.33;17.35;;;;;;;8.35;100.00;101595.50;5131895;27;20027;-76
2021/10/18 03:14:59;;;;;;;29.48;15.43;;;;;;;8.50;100.00;101595.22;5131584;27;20035;-76
2021/10/18 03:17:25;;;;;;;33.35;15.32;;;;;;;8.52;100.00;101593.28;5130792;27;20079;-77
2021/10/18 03:19:50;;;;;;;;;;;;;;;8.51;100.00;101599.59;5131230;27;20031;-76
2021/10/18 03:22:16;;;;;;;;;;;;;;;8.47;100.00;101603.47;5132230;27;19922;-76
2021/10/18 03:24:41;;;;;;;28.50;15.47;;;;;;;8.43;100.00;101605.56;5131579;27;19911;-76
2021/10/18 03:27:07;;;;;;;29.70;17.05;;;;;;;8.40;100.00;101603.97;5130685;27;20046;-76
2021/10/18 03:29:32;;;;;;;30.70;16.73;;;;;;;8.40;100.00;101603.97;5113493;27;20031;-76
2021/10/18 03:31:58;;;;;;;29.23;15.57;;;;;;;8.37;100.00;101598.06;5131396;27;20031;-76
2021/10/18 03:34:23;;;;;;;26.60;14.73;;;;;;;8.40;100.00;101603.97;5130135;27;20379;-76
2021/10/18 03:36:48;;;;;;;26.13;16.07;;;;;;;8.39;100.00;101604.94;5130354;27;20540;-76
2021/10/18 03:39:14;;;;;;;26.17;14.33;;;;;;;8.39;100.00;101617.41;5113292;27;20034;-75
2021/10/18 03:41:39;;;;;;;34.25;15.73;;;;;;;8.42;100.00;101607.38;5130331;27;20074;-76
2021/10/18 03:44:05;;;;;;;29.03;13.13;;;;;;;8.45;100.00;101601.81;5131010;27;20041;-75
2021/10/18 03:46:30;;;;;;;26.17;14.73;;;;;;;8.41;100.00;101602.19;5129296;27;20172;-75
2021/10/18 03:48:56;;;;;;;24.63;13.87;;;;;;;8.39;100.00;101596.94;5130161;27;20041;-76
2021/10/18 03:51:21;;;;;;;27.57;13.17;;;;;;;8.50;100.00;101604.09;5130051;27;20035;-75
2021/10/18 03:53:47;;;;;;;26.20;13.83;;;;;;;8.42;100.00;101607.38;5129254;27;20038;-75
2021/10/18 03:56:12;;;;;;;25.50;13.67;;;;;;;8.37;100.00;101598.06;5130067;27;20272;-75
2021/10/18 03:58:38;;;;;;;26.75;13.82;;;;;;;8.45;100.00;101598.28;5130990;27;20039;-75
2021/10/18 04:01:08;;;;;;;25.57;13.43;;;;;;;8.43;100.00;101606.41;5130824;27;20181;-75
2021/10/18 04:03:34;;;;;;;29.58;13.77;;;;;;;8.48;100.00;101600.72;5129554;27;20046;-75
2021/10/18 04:05:59;;;;;;;24.27;13.27;;;;;;;8.45;100.00;101593.81;5129776;27;20019;-75
2021/10/18 04:08:26;;;;;;;22.97;12.33;;;;;;;8.45;100.00;101599.16;5129962;27;20035;-75
2021/10/18 04:10:52;;;;;;;28.00;12.88;;;;;;;8.49;100.00;101598.88;5129095;27;20038;-75
2021/10/18 04:13:17;;;;;;;24.07;12.57;;;;;;;8.53;100.00;101597.66;5110727;27;20091;-75
2021/10/18 04:15:43;;;;;;;21.57;12.30;;;;;;;8.57;100.00;101597.28;5111041;27;20027;-75
2021/10/18 04:18:08;;;;;;;21.60;12.53;;;;;;;8.55;100.00;101603.69;5129153;27;20729;-75
2021/10/18 04:20:33;;;;;;;21.93;12.80;;;;;;;8.54;100.00;101607.31;5128259;27;20455;-75
2021/10/18 04:22:59;;;;;;;23.37;13.27;;;;;;;8.51;100.00;101600.44;5110956;27;20443;-75
2021/10/18 04:25:26;;;;;;;24.27;12.20;;;;;;;8.58;100.00;101616.75;5128717;27;20341;-75
2021/10/18 04:27:51;;;;;;;24.33;13.30;;;;;;;8.56;100.00;101603.56;5111829;27;20023;-76
2021/10/18 04:30:17;;;;;;;22.07;12.57;;;;;;;8.55;100.00;101596.56;5129439;27;20051;-75
2021/10/18 04:32:42;;;;;;;23.53;12.80;;;;;;;8.51;100.00;101592.47;5112138;27;20034;-75
2021/10/18 04:35:08;;;;;;;19.17;12.60;;;;;;;8.51;100.00;101594.28;5128977;27;20031;-75
2021/10/18 04:37:33;;;;;;;18.20;12.43;;;;;;;8.64;100.00;101600.28;5129301;27;20089;-75
2021/10/18 04:39:59;;;;;;;19.73;12.25;;;;;;;8.66;99.52;101604.50;5130108;27;20307;-75
2021/10/18 04:42:24;;;;;;;25.20;12.03;;;;;;;8.64;99.56;101605.59;5112151;27;20035;-75
2021/10/18 04:44:49;;;;;;;25.70;12.27;;;;;;;8.60;99.45;101605.00;5128798;27;20110;-75
2021/10/18 04:47:15;;;;;;;20.10;10.93;;;;;;;8.65;99.31;101599.28;5129130;27;20071;-75
2021/10/18 04:49:40;;;;;;;23.50;13.40;;;;;;;8.68;98.99;101607.00;5130059;27;20363;-75
2021/10/18 04:52:06;;;;;;;26.20;13.70;;;;;;;8.70;98.41;101593.56;5128952;27;20046;-77
2021/10/18 04:54:31;;;;;;;20.17;11.20;;;;;;;8.64;98.39;101597.63;5128142;27;20087;-75
2021/10/18 04:56:56;;;;;;;22.60;12.50;;;;;;;8.66;99.04;101603.63;5129994;27;20276;-75
2021/10/18 04:59:22;;;;;;;21.40;12.83;;;;;;;8.66;98.92;101608.94;5128942;27;20034;-75
2021/10/18 05:01:48;;;;;;;25.27;12.77;;;;;;;8.68;99.15;101620.31;5128668;27;20030;-75
2021/10/18 05:04:13;;;;;;;28.42;12.88;;;;;;;8.66;98.60;101612.47;5129423;27;20062;-75
2021/10/18 05:06:38;;;;;;;34.70;12.60;;;;;;;8.78;97.88;101613.25;5129615;27;20019;-75
2021/10/18 05:09:04;;;;;;;22.20;13.70;;;;;;;8.76;98.03;101617.88;5128784;27;20038;-75
2021/10/18 05:11:29;;;;;;;25.23;11.63;;;;;;;8.80;98.21;101611.31;5129648;27;20593;-75
2021/10/18 05:13:55;;;;;;;18.73;11.03;;;;;;;8.80;97.56;101613.09;5128359;27;20092;-75
2021/10/18 05:16:20;;;;;;;20.13;11.53;;;;;;;8.78;97.38;101615.94;5128763;27;20023;-75
2021/10/18 05:18:45;;;;;;;22.83;13.47;;;;;;;8.79;98.31;101622.09;5128681;27;20440;-75
2021/10/18 05:21:11;;;;;;;24.38;13.45;;;;;;;8.77;98.81;101637.34;5111524;27;20104;-75
2021/10/18 05:23:36;;;;;;;23.13;12.57;;;;;;;8.70;98.97;101631.69;5129344;27;20084;-75
2021/10/18 05:26:02;;;;;;;23.30;14.07;;;;;;;8.77;98.44;101638.19;5129414;27;20655;-75
2021/10/18 05:28:28;;;;;;;23.65;13.07;;;;;;;8.76;98.29;101636.50;5128442;27;20030;-75
2021/10/18 05:30:54;;;;;;;20.58;12.82;;;;;;;8.75;98.35;101641.94;5127764;27;20035;-74
2021/10/18 05:33:19;;;;;;;24.65;13.32;;;;;;;8.69;98.65;101632.66;5126500;27;20034;-75
2021/10/18 05:35:46;;;;;;;23.43;13.37;;;;;;;8.79;98.20;101643.38;5127609;27;20039;-76
2021/10/18 05:38:16;;;;;;;23.88;12.65;;;;;;;8.69;98.01;101635.34;5126776;27;20268;-76
2021/10/18 05:40:41;;;;;;;24.67;12.90;;;;;;;8.76;97.24;101638.34;5126774;28;20119;-75
2021/10/18 05:43:07;;;;;;;25.33;12.83;;;;;;;8.86;96.82;101641.91;5109550;28;20067;-76
2021/10/18 05:45:34;;;;;;;24.50;11.53;;;;;;;8.86;96.66;101645.41;5127662;27;20041;-76
2021/10/18 05:48:01;;;;;;;27.85;13.43;;;;;;;8.78;96.58;101642.56;5128288;27;20039;-76
2021/10/18 05:50:37;;;;;;;21.38;12.88;;;;;;;8.84;96.43;101646.50;5128041;27;20062;-75
2021/10/18 05:53:03;;;;;;;21.13;12.57;;;;;;;8.83;96.80;101652.81;5128194;27;20687;-76
2021/10/18 05:55:28;;;;;;;20.17;12.55;;;;;;;8.79;96.62;101665.53;5128517;27;20019;-75
2021/10/18 05:58:02;;;;;;;23.27;12.97;;;;;;;8.78;96.76;101650.53;5128040;27;20087;-75
2021/10/18 06:00:28;;;;;;;21.92;12.63;;;;;;;8.77;97.75;101667.47;5129112;27;20038;-76
2021/10/18 06:02:54;;;;;;;25.65;12.60;;;;;;;8.78;97.95;101670.97;5128846;27;20070;-75
2021/10/18 06:05:21;;;;;;;23.95;12.18;;;;;;;8.79;97.64;101673.50;5127789;27;20126;-75
2021/10/18 06:07:46;;;;;;;;;;;;;;;8.84;97.81;101671.31;5129335;27;20035;-75
2021/10/18 06:10:13;;;;;;;;;;;;;;;8.81;98.11;101682.22;5127381;27;20016;-76
2021/10/18 06:12:39;;;;;;;21.65;12.85;;;;;;;8.76;98.11;101673.78;5130865;27;19911;-76
2021/10/18 06:15:06;;;;;;;28.90;13.63;;;;;;;8.79;97.93;101673.50;5130286;27;20684;-76
2021/10/18 06:17:32;;;;;;;21.52;12.77;;;;;;;8.78;98.11;101682.50;5129639;27;20035;-76
2021/10/18 06:19:57;;;;;;;24.40;13.07;;;;;;;8.73;97.97;101679.34;5130710;27;20252;-76
2021/10/18 06:22:23;;;;;;;29.60;13.55;;;;;;;8.78;97.68;101687.81;5130575;27;20042;-76
2021/10/18 06:24:49;;;;;;;25.97;13.90;;;;;;;8.76;98.53;101678.28;5129586;27;20104;-76
2021/10/18 06:27:16;;;;;;;27.00;13.73;;;;;;;8.81;99.14;101687.56;5130957;27;20031;-76
2021/10/18 06:29:42;;;;;;;24.80;13.63;;;;;;;8.84;99.54;101691.78;5131113;27;20019;-76
2021/10/18 06:32:07;;;;;;;24.90;14.23;;;;;;;8.90;99.68;101695.72;5132412;27;20146;-76
2021/10/18 06:34:33;;;;;;;29.13;14.00;;;;;;;8.91;99.82;101708.09;5130611;27;20473;-76
2021/10/18 06:36:59;;;;;;;26.83;13.80;;;;;;;8.84;99.25;101705.09;5130867;27;20277;-76
2021/10/18 06:39:24;;;;;;;24.93;13.60;;;;;;;8.88;99.04;101712.69;5131587;27;20088;-76
2021/10/18 06:41:50;;;;;;;23.27;14.87;;;;;;;8.90;98.50;101711.72;5130683;27;20125;-76
2021/10/18 06:44:15;;;;;;;25.97;14.40;;;;;;;8.76;98.95;101697.75;5130417;27;20035;-76
2021/10/18 06:46:40;;;;;;;26.20;16.00;;;;;;;8.86;98.66;101705.81;5113453;27;20054;-76
2021/10/18 06:49:06;;;;;;;19.87;12.43;;;;;;;8.94;98.09;101716.66;5130556;27;20062;-76
2021/10/18 06:51:39;;;;;;;26.83;13.60;;;;;;;8.97;97.82;101720.91;5113395;27;20092;-76
2021/10/18 06:54:05;;;;;;;22.25;13.93;;;;;;;9.11;98.08;101725.03;5130857;27;20031;-76
2021/10/18 06:56:30;;;;;;;25.63;13.68;;;;;;;9.01;98.72;101722.31;5113244;27;20410;-76
2021/10/18 06:58:56;;;;;;;25.07;14.33;;;;;;;9.07;98.90;101722.66;5130529;27;20452;-76
2021/10/18 07:01:21;;;;;;;29.90;14.23;;;;;;;8.98;99.16;101727.91;5130497;27;20042;-76
2021/10/18 07:03:47;;;;;;;23.37;14.37;;;;;;;9.00;99.88;101731.28;5131199;27;20088;-76
2021/10/18 07:06:12;;;;;;;26.85;14.38;;;;;;;8.93;99.92;101743.44;5113385;27;20089;-76
2021/10/18 07:08:37;;;;;;;27.27;13.90;;;;;;;8.95;100.00;101738.81;5130457;27;20355;-76
2021/10/18 07:11:03;;;;;;;27.07;14.57;;;;;;;8.90;100.00;101738.34;5130254;27;20413;-76
2021/10/18 07:13:28;;;;;;;26.77;13.90;;;;;;;8.97;100.00;101744.88;5112834;27;20273;-76
2021/10/18 07:15:54;;;;;;;23.58;14.52;;;;;;;8.93;100.00;101756.75;5130303;27;20491;-76
2021/10/18 07:18:20;;;;;;;30.08;14.80;;;;;;;9.14;100.00;101762.09;5113093;27;20027;-76
2021/10/18 07:20:45;;;;;;;24.08;13.90;;;;;;;9.09;100.00;101749.16;5129886;27;20405;-76
2021/10/18 07:23:12;;;;;;;28.47;14.60;;;;;;;9.04;99.67;101746.88;5130889;27;20023;-75
2021/10/18 07:25:39;;;;;;;23.95;14.38;;;;;;;9.09;99.40;101743.84;5129786;27;20584;-75
2021/10/18 07:28:06;;;;;;;23.33;13.73;;;;;;;9.16;99.16;101755.69;5129844;27;20035;-76
2021/10/18 07:30:33;;;;;;;33.08;14.63;;;;;;;9.17;98.81;101752.03;5129566;27;20031;-76
2021/10/18 07:32:59;;;;;;;21.73;13.18;;;;;;;9.20;97.79;101757.13;5129481;27;20126;-76
2021/10/18 07:35:30;;;;;;;23.02;12.20;;;;;;;9.22;97.18;101755.13;5129230;27;20126;-76
2021/10/18 07:37:56;;;;;;;23.30;12.95;;;;;;;9.28;97.77;101759.13;5129576;27;20047;-75
2021/10/18 07:40:25;;;;;;;21.75;12.13;;;;;;;9.26;97.69;101756.56;5129318;27;20046;-76
2021/10/18 07:42:51;;;;;;;22.58;12.68;;;;;;;9.26;97.87;101766.41;5130430;27;20035;-76
2021/10/18 07:45:17;;;;;;;23.08;12.52;;;;;;;9.35;97.73;101772.78;5129123;27;20425;-75
2021/10/18 07:47:43;;;;;;;17.98;11.85;;;;;;;9.38;97.24;101765.34;5130353;27;20142;-75
2021/10/18 07:50:10;;;;;;;19.73;12.02;;;;;;;9.47;97.45;101779.72;5129275;27;20050;-76
2021/10/18 07:52:38;;;;;;;22.48;13.43;;;;;;;9.39;97.58;101771.53;5130096;27;20471;-75
2021/10/18 07:55:05;;;;;;;21.63;12.18;;;;;;;9.38;96.73;101765.34;5128306;27;20135;-76
2021/10/18 07:57:31;;;;;;;24.65;11.57;;;;;;;9.38;96.40;101769.84;5130766;27;20035;-76
2021/10/18 07:59:58;;;;;;;18.92;12.05;;;;;;;9.51;96.06;101759.84;5130079;27;20042;-76
2021/10/18 08:02:24;;;;;;;23.70;13.02;;;;;;;9.64;95.58;101775.63;5112096;27;20371;-76
2021/10/18 08:04:50;;;;;;;28.63;13.27;;;;;;;9.70;95.42;101767.94;5129812;27;20031;-76
2021/10/18 08:07:15;;;;;;;24.03;12.33;;;;;;;9.77;95.00;101770.09;5129862;27;20031;-75
2021/10/18 08:09:40;;;;;;;21.90;12.60;;;;;;;9.62;94.30;101770.44;5128919;27;20046;-75
2021/10/18 08:12:06;;;;;;;20.27;13.33;;;;;;;9.64;94.72;101762.28;5128794;27;20067;-76
2021/10/18 08:14:31;;;;;;;26.70;13.50;;;;;;;9.77;94.20;101770.09;5128071;27;20460;-76
2021/10/18 08:17:03;;;;;;;21.77;12.73;;;;;;;9.88;93.66;101775.31;5111692;27;20457;-75
2021/10/18 08:19:29;;;;;;;21.83;11.48;;;;;;;10.02;93.69;101784.81;5128637;27;20126;-75
2021/10/18 08:21:54;;;;;;;26.10;12.57;;;;;;;9.97;93.37;101777.19;5128872;27;20123;-75
2021/10/18 08:24:20;;;;;;;23.60;13.93;;;;;;;10.01;92.86;101781.31;5111441;27;20053;-75
2021/10/18 08:26:45;;;;;;;20.53;13.23;;;;;;;9.99;93.06;101774.41;5128687;27;20471;-74
2021/10/18 08:29:11;;;;;;;21.87;13.20;;;;;;;9.97;93.42;101787.88;5128652;27;20043;-75
2021/10/18 08:31:36;;;;;;;26.50;14.70;;;;;;;9.81;94.09;101792.84;5129606;27;20034;-75
2021/10/18 08:34:01;;;;;;;24.30;13.47;;;;;;;9.88;94.98;101802.00;5127926;27;20023;-75
2021/10/18 08:36:27;;;;;;;26.27;14.73;;;;;;;9.64;96.85;101808.47;5128721;27;20035;-75
2021/10/18 08:39:57;;;;;;;27.43;15.10;;;;;;;9.64;97.60;101816.47;5129678;27;20118;-76
2021/10/18 08:41:43;;;;;;;30.80;16.38;;;;;;;9.57;100.00;101823.28;5129407;27;20111;-76
2021/10/18 08:44:15;;;;;;;29.27;16.30;;;;;;;9.46;100.00;101820.72;5111034;27;20042;-76
2021/10/18 08:46:52;;;;;;;27.13;16.67;;;;;;;9.48;100.00;101816.06;5128411;27;20531;-76
2021/10/18 08:49:19;;;;;;;27.35;16.80;;;;;;;9.58;100.00;101818.81;5128262;27;20508;-76
2021/10/18 08:51:45;;;;;;;30.08;16.50;;;;;;;9.67;100.00;101823.38;5128165;27;20027;-76
2021/10/18 08:54:11;;;;;;;35.35;18.13;;;;;;;9.69;100.00;101818.75;5128051;27;20035;-77
2021/10/18 08:56:37;;;;;;;31.33;16.27;;;;;;;9.73;100.00;101823.69;5128006;27;20035;-77
2021/10/18 08:59:03;;;;;;;23.85;15.63;;;;;;;9.87;100.00;101824.34;5128112;27;20380;-77
2021/10/18 09:01:45;;;;;;;;;;;;;;;9.94;100.00;101812.16;5129301;27;20110;-76
2021/10/18 09:04:31;;;;;;;26.17;14.55;;;;;;;10.19;100.00;101823.38;5127371;27;19968;-77
2021/10/18 09:06:58;;;;;;;;;;;;;;;10.38;100.00;101825.31;5128332;27;20078;-76
2021/10/18 09:09:24;;;;;;;30.40;16.45;;;;;;;10.32;100.00;101818.69;5110637;27;19922;-76
2021/10/18 09:11:56;;;;;;;23.40;15.27;;;;;;;10.31;100.00;101823.19;5110508;27;20042;-75
2021/10/18 09:14:21;;;;;;;25.67;14.65;;;;;;;10.48;99.98;101821.69;5127149;27;20058;-75
2021/10/18 09:16:47;;;;;;;25.67;14.52;;;;;;;10.47;98.48;101820.00;5110519;27;20627;-75
2021/10/18 09:19:19;;;;;;;25.65;15.23;;;;;;;10.70;98.84;101825.09;5128633;27;20046;-75
2021/10/18 09:21:50;;;;;;;28.55;16.10;;;;;;;10.71;97.84;101813.47;5128511;27;20034;-75
2021/10/18 09:24:36;;;;;;;26.58;13.45;;;;;;;10.72;95.88;101820.47;5128655;27;20059;-75
2021/10/18 09:27:08;;;;;;;25.17;13.73;;;;;;;10.81;94.29;101816.16;5127344;27;20095;-75
2021/10/18 09:29:44;;;;;;;24.52;14.73;;;;;;;10.99;95.19;101822.50;5127495;27;20047;-75
2021/10/18 09:32:10;;;;;;;;;;;;;;;11.11;94.25;101823.22;5127926;27;20098;-76
2021/10/18 09:34:36;;;;;;;;;;;;;;;11.12;93.12;101816.88;5127614;27;20006;-75
2021/10/18 09:37:09;;;;;;;;;;;;;;;11.15;92.74;101821.97;5127969;27;20296;-76
2021/10/18 09:39:38;;;;;;;26.40;14.55;;;;;;;11.18;93.09;101832.38;5127288;27;19960;-75
2021/10/18 09:42:06;;;;;;;24.40;14.75;;;;;;;11.28;94.24;101827.03;5127294;28;20035;-75
2021/10/18 10:52:40;;;;;;;21.23;12.23;;;;;;;12.44;87.79;101804.50;5130520;27;20042;-75
2021/10/18 10:55:25;;;;;;;18.75;10.40;;;;;;;12.76;87.24;101808.53;5112253;27;20039;-76
2021/10/18 10:57:54;;;;;;;18.77;10.63;;;;;;;12.86;87.07;101804.81;5130175;27;20043;-76
2021/10/18 11:00:32;;;;;;;20.98;10.55;;;;;;;12.83;86.20;101796.22;5131384;27;20031;-76
2021/10/18 11:03:41;;;;;;;24.48;10.60;;;;;;;12.56;86.72;101799.78;5113191;27;20038;-75
2021/10/18 11:06:08;;;;;;;16.92;9.60;;;;;;;12.58;87.01;101795.13;5113340;27;20455;-76
2021/10/18 11:08:39;;;;;;;18.95;10.07;;;;;;;12.47;86.64;101798.84;5130408;27;20053;-76
2021/10/18 11:11:22;;;;;;;20.02;11.48;;;;;;;12.58;86.75;101798.66;5130476;27;20119;-76
2021/10/18 11:13:57;;;;;;;19.95;10.80;;;;;;;12.45;86.90;101796.34;5129775;27;20634;-76
2021/10/18 11:16:26;;;;;;;17.48;9.02;;;;;;;12.58;87.54;101797.81;5130118;27;20448;-76
2021/10/18 11:18:54;;;;;;;17.45;9.90;;;;;;;12.67;86.46;101794.25;5112919;27;20436;-76
2021/10/18 11:21:29;;;;;;;22.63;10.38;;;;;;;12.94;87.38;101806.72;5129972;27;20054;-76
2021/10/18 11:23:59;;;;;;;17.55;9.95;;;;;;;13.12;85.34;101801.38;5129658;27;20038;-76
2021/10/18 11:26:26;;;;;;;17.13;10.48;;;;;;;13.36;84.66;101802.63;5112692;27;20054;-76
2021/10/18 11:28:57;;;;;;;17.15;9.82;;;;;;;13.42;82.46;101792.13;5130860;27;20027;-76
2021/10/18 11:31:34;;;;;;;14.75;8.75;;;;;;;13.61;82.44;101804.50;5129857;27;20164;-76
2021/10/18 11:34:02;;;;;;;18.85;10.00;;;;;;;13.46;82.34;101796.19;5130327;27;20043;-76
2021/10/18 11:36:28;;;;;;;18.48;10.60;;;;;;;13.27;82.61;101799.91;5130695;27;20079;-76
2021/10/18 11:39:10;;;;;;;17.63;9.57;;;;;;;13.44;83.98;101816.13;5112332;27;20152;-77
2021/10/18 11:42:02;;;;;;;13.63;9.27;;;;;;;13.39;83.20;101811.22;5129544;27;20525;-76
2021/10/18 11:44:47;;;;;;;17.20;9.02;;;;;;;13.17;82.63;101800.94;5129335;27;20073;-75
2021/10/18 11:47:32;;;;;;;17.98;9.18;;;;;;;13.18;82.68;101798.09;5129588;27;20368;-76
2021/10/18 11:50:04;;;;;;;20.52;9.93;;;;;;;13.45;82.82;101802.53;5129497;27;20153;-76
2021/10/18 11:52:31;;;;;;;13.10;9.35;;;;;;;13.40;82.82;101801.31;5129525;27;20432;-76
2021/10/18 11:54:56;;;;;;;16.30;9.57;;;;;;;13.23;82.23;101795.78;5129855;27;20355;-76
2021/10/18 11:57:22;;;;;;;19.55;10.32;;;;;;;13.13;82.60;101795.00;5129403;27;20398;-76
2021/10/18 11:59:47;;;;;;;15.18;8.43;;;;;;;13.24;82.36;101796.63;5129196;27;20074;-76
2021/10/18 12:02:19;;;;;;;17.93;9.90;;;;;;;13.26;81.80;101786.59;5112175;27;20079;-76
2021/10/18 12:04:58;;;;;;;22.15;8.40;;;;;;;13.38;81.71;101788.06;5111954;27;20045;-76
2021/10/18 12:07:37;;;;;;;15.75;9.43;;;;;;;13.44;79.87;101779.41;5129355;27;20054;-76
2021/10/18 12:10:21;;;;;;;14.98;9.43;;;;;;;13.48;81.43;101788.81;5130304;27;20142;-76
2021/10/18 12:13:07;;;;;;;17.50;9.25;;;;;;;13.51;79.99;101774.25;5129090;27;20042;-76
2021/10/18 12:15:43;;;;;;;16.98;8.50;;;;;;;13.58;80.73;101777.13;5128714;27;20104;-76
2021/10/18 12:18:09;;;;;;;;;;;;;;;13.68;80.21;101767.16;5129512;27;20035;-76
2021/10/18 12:20:35;;;;;;;;;;;;;;;13.74;79.26;101766.50;5112079;27;19916;-77
2021/10/18 12:23:06;;;;;;;12.88;6.60;;;;;;;13.65;78.70;101756.72;5111543;27;19911;-76
2021/10/18 12:25:36;;;;;;;10.80;6.95;;;;;;;13.37;78.65;101754.19;5129409;27;20031;-76